sensor_id;sensor_type;location;lat;lon;timestamp;P1;durP1;ratioP1;P2;durP2;ratioP2
32094;SDS011;18608;53.688;10.748;2023-08-06T00:00:16;5.00;;;2.90;;
32094;SDS011;18608;53.688;10.748;2023-08-06T00:02:42;4.40;;;2.67;;
32094;SDS011;18608;53.688;10.748;2023-08-06T00:05:08;4.07;;;2.53;;
32094;SDS011;18608;53.688;10.748;2023-08-06T00:07:34;6.63;;;3.20;;
32094;SDS011;18608;53.688;10.748;2023-08-06T00:10:00;2.40;;;2.20;;
32094;SDS011;18608;53.688;10.748;2023-08-06T00:12:26;8.27;;;2.50;;
32094;SDS011;18608;53.688;10.748;2023-08-06T00:14:52;6.70;;;2.97;;
32094;SDS011;18608;53.688;10.748;2023-08-06T00:17:18;3.97;;;2.50;;
32094;SDS011;18608;53.688;10.748;2023-08-06T00:19:44;3.13;;;2.07;;
32094;SDS011;18608;53.688;10.748;2023-08-06T00:22:10;3.60;;;3.30;;
32094;SDS011;18608;53.688;10.748;2023-08-06T00:24:36;5.40;;;3.10;;
32094;SDS011;18608;53.688;10.748;2023-08-06T00:27:03;16.13;;;3.17;;
32094;SDS011;18608;53.688;10.748;2023-08-06T00:29:29;2.83;;;2.63;;
32094;SDS011;18608;53.688;10.748;2023-08-06T00:31:55;6.90;;;3.57;;
32094;SDS011;18608;53.688;10.748;2023-08-06T00:34:21;4.00;;;3.00;;
32094;SDS011;18608;53.688;10.748;2023-08-06T00:36:47;4.60;;;3.43;;
32094;SDS011;18608;53.688;10.748;2023-08-06T00:39:13;4.43;;;3.10;;
32094;SDS011;18608;53.688;10.748;2023-08-06T00:41:39;3.37;;;2.37;;
32094;SDS011;18608;53.688;10.748;2023-08-06T00:44:05;4.70;;;3.50;;
32094;SDS011;18608;53.688;10.748;2023-08-06T00:46:31;3.50;;;3.13;;
32094;SDS011;18608;53.688;10.748;2023-08-06T00:48:58;3.53;;;2.90;;
32094;SDS011;18608;53.688;10.748;2023-08-06T00:51:24;4.93;;;2.57;;
32094;SDS011;18608;53.688;10.748;2023-08-06T00:53:51;4.97;;;2.90;;
32094;SDS011;18608;53.688;10.748;2023-08-06T00:56:18;4.20;;;3.33;;
32094;SDS011;18608;53.688;10.748;2023-08-06T00:58:44;4.63;;;2.90;;
32094;SDS011;18608;53.688;10.748;2023-08-06T01:01:11;3.50;;;2.93;;
32094;SDS011;18608;53.688;10.748;2023-08-06T01:03:37;15.10;;;3.77;;
32094;SDS011;18608;53.688;10.748;2023-08-06T01:06:03;4.80;;;3.00;;
32094;SDS011;18608;53.688;10.748;2023-08-06T01:15:49;4.13;;;2.90;;
32094;SDS011;18608;53.688;10.748;2023-08-06T01:18:15;3.93;;;3.53;;
32094;SDS011;18608;53.688;10.748;2023-08-06T01:20:42;3.17;;;2.93;;
32094;SDS011;18608;53.688;10.748;2023-08-06T01:23:08;3.43;;;3.10;;
32094;SDS011;18608;53.688;10.748;2023-08-06T01:25:35;4.43;;;3.10;;
32094;SDS011;18608;53.688;10.748;2023-08-06T01:28:16;7.53;;;3.00;;
32094;SDS011;18608;53.688;10.748;2023-08-06T01:30:48;6.13;;;3.67;;
32094;SDS011;18608;53.688;10.748;2023-08-06T01:33:16;6.33;;;2.80;;
32094;SDS011;18608;53.688;10.748;2023-08-06T01:35:45;6.03;;;3.70;;
32094;SDS011;18608;53.688;10.748;2023-08-06T01:38:13;3.50;;;2.70;;
32094;SDS011;18608;53.688;10.748;2023-08-06T01:40:39;3.17;;;2.87;;
32094;SDS011;18608;53.688;10.748;2023-08-06T01:43:05;6.37;;;2.90;;
32094;SDS011;18608;53.688;10.748;2023-08-06T01:45:31;4.33;;;3.17;;
32094;SDS011;18608;53.688;10.748;2023-08-06T01:47:57;4.70;;;2.60;;
32094;SDS011;18608;53.688;10.748;2023-08-06T01:50:23;4.30;;;3.13;;
32094;SDS011;18608;53.688;10.748;2023-08-06T01:52:49;4.37;;;3.10;;
32094;SDS011;18608;53.688;10.748;2023-08-06T01:55:15;5.27;;;3.33;;
32094;SDS011;18608;53.688;10.748;2023-08-06T01:57:40;2.93;;;2.73;;
32094;SDS011;18608;53.688;10.748;2023-08-06T02:00:07;6.57;;;3.53;;
32094;SDS011;18608;53.688;10.748;2023-08-06T02:02:33;6.77;;;3.20;;
32094;SDS011;18608;53.688;10.748;2023-08-06T02:04:59;5.00;;;3.30;;
32094;SDS011;18608;53.688;10.748;2023-08-06T02:07:25;6.50;;;3.40;;
32094;SDS011;18608;53.688;10.748;2023-08-06T02:09:51;9.07;;;3.43;;
32094;SDS011;18608;53.688;10.748;2023-08-06T02:12:17;5.60;;;3.30;;
32094;SDS011;18608;53.688;10.748;2023-08-06T02:14:43;9.93;;;3.63;;
32094;SDS011;18608;53.688;10.748;2023-08-06T02:17:09;9.63;;;4.50;;
32094;SDS011;18608;53.688;10.748;2023-08-06T02:19:35;5.77;;;3.87;;
32094;SDS011;18608;53.688;10.748;2023-08-06T02:22:01;4.57;;;3.37;;
32094;SDS011;18608;53.688;10.748;2023-08-06T02:24:27;5.63;;;3.87;;
32094;SDS011;18608;53.688;10.748;2023-08-06T02:26:53;10.20;;;3.83;;
32094;SDS011;18608;53.688;10.748;2023-08-06T02:29:21;9.00;;;3.53;;
32094;SDS011;18608;53.688;10.748;2023-08-06T02:31:47;14.10;;;3.80;;
32094;SDS011;18608;53.688;10.748;2023-08-06T02:34:13;4.17;;;3.50;;
32094;SDS011;18608;53.688;10.748;2023-08-06T02:36:39;7.60;;;3.60;;
32094;SDS011;18608;53.688;10.748;2023-08-06T02:39:05;6.47;;;3.70;;
32094;SDS011;18608;53.688;10.748;2023-08-06T02:41:31;5.77;;;3.93;;
32094;SDS011;18608;53.688;10.748;2023-08-06T02:43:57;8.30;;;3.67;;
32094;SDS011;18608;53.688;10.748;2023-08-06T02:46:23;5.73;;;3.63;;
32094;SDS011;18608;53.688;10.748;2023-08-06T02:48:49;6.60;;;3.90;;
32094;SDS011;18608;53.688;10.748;2023-08-06T02:51:15;7.20;;;3.80;;
32094;SDS011;18608;53.688;10.748;2023-08-06T02:53:41;5.97;;;3.40;;
32094;SDS011;18608;53.688;10.748;2023-08-06T02:56:07;4.00;;;3.57;;
32094;SDS011;18608;53.688;10.748;2023-08-06T02:58:33;4.70;;;3.33;;
32094;SDS011;18608;53.688;10.748;2023-08-06T03:01:06;4.70;;;3.83;;
32094;SDS011;18608;53.688;10.748;2023-08-06T03:03:32;12.93;;;4.40;;
32094;SDS011;18608;53.688;10.748;2023-08-06T03:05:58;7.17;;;3.87;;
32094;SDS011;18608;53.688;10.748;2023-08-06T03:08:25;4.30;;;3.33;;
32094;SDS011;18608;53.688;10.748;2023-08-06T03:10:51;6.70;;;3.87;;
32094;SDS011;18608;53.688;10.748;2023-08-06T03:13:17;17.23;;;4.87;;
32094;SDS011;18608;53.688;10.748;2023-08-06T03:15:43;6.80;;;3.80;;
32094;SDS011;18608;53.688;10.748;2023-08-06T03:18:09;6.47;;;4.30;;
32094;SDS011;18608;53.688;10.748;2023-08-06T03:20:35;4.77;;;4.07;;
32094;SDS011;18608;53.688;10.748;2023-08-06T03:23:01;5.90;;;4.33;;
32094;SDS011;18608;53.688;10.748;2023-08-06T03:25:27;11.10;;;4.63;;
32094;SDS011;18608;53.688;10.748;2023-08-06T03:27:53;8.83;;;4.40;;
32094;SDS011;18608;53.688;10.748;2023-08-06T03:30:19;9.90;;;4.43;;
32094;SDS011;18608;53.688;10.748;2023-08-06T03:32:45;7.47;;;3.93;;
32094;SDS011;18608;53.688;10.748;2023-08-06T03:35:12;7.83;;;4.70;;
32094;SDS011;18608;53.688;10.748;2023-08-06T03:37:38;7.23;;;4.47;;
32094;SDS011;18608;53.688;10.748;2023-08-06T03:40:04;8.80;;;4.43;;
32094;SDS011;18608;53.688;10.748;2023-08-06T03:42:30;10.50;;;4.50;;
32094;SDS011;18608;53.688;10.748;2023-08-06T03:44:56;8.83;;;5.10;;
32094;SDS011;18608;53.688;10.748;2023-08-06T03:47:22;8.00;;;4.20;;
32094;SDS011;18608;53.688;10.748;2023-08-06T03:49:48;8.63;;;4.73;;
32094;SDS011;18608;53.688;10.748;2023-08-06T03:52:14;7.97;;;4.93;;
32094;SDS011;18608;53.688;10.748;2023-08-06T03:54:40;7.57;;;4.83;;
32094;SDS011;18608;53.688;10.748;2023-08-06T03:57:08;7.50;;;5.00;;
32094;SDS011;18608;53.688;10.748;2023-08-06T03:59:34;5.47;;;4.47;;
32094;SDS011;18608;53.688;10.748;2023-08-06T04:02:00;10.27;;;4.50;;
32094;SDS011;18608;53.688;10.748;2023-08-06T04:04:26;12.00;;;4.83;;
32094;SDS011;18608;53.688;10.748;2023-08-06T04:06:52;11.03;;;4.93;;
32094;SDS011;18608;53.688;10.748;2023-08-06T04:09:18;10.93;;;4.73;;
32094;SDS011;18608;53.688;10.748;2023-08-06T04:11:44;5.63;;;4.40;;
32094;SDS011;18608;53.688;10.748;2023-08-06T04:14:10;7.53;;;4.63;;
32094;SDS011;18608;53.688;10.748;2023-08-06T04:16:36;9.03;;;4.90;;
32094;SDS011;18608;53.688;10.748;2023-08-06T04:19:02;9.47;;;4.90;;
32094;SDS011;18608;53.688;10.748;2023-08-06T04:21:28;7.80;;;4.33;;
32094;SDS011;18608;53.688;10.748;2023-08-06T04:23:54;7.43;;;4.87;;
32094;SDS011;18608;53.688;10.748;2023-08-06T04:26:20;8.30;;;4.23;;
32094;SDS011;18608;53.688;10.748;2023-08-06T04:28:46;5.27;;;4.57;;
32094;SDS011;18608;53.688;10.748;2023-08-06T04:31:12;5.93;;;4.30;;
32094;SDS011;18608;53.688;10.748;2023-08-06T04:33:38;5.33;;;4.33;;
32094;SDS011;18608;53.688;10.748;2023-08-06T04:36:04;6.40;;;4.80;;
32094;SDS011;18608;53.688;10.748;2023-08-06T04:38:29;7.30;;;4.57;;
32094;SDS011;18608;53.688;10.748;2023-08-06T04:40:55;7.77;;;5.20;;
32094;SDS011;18608;53.688;10.748;2023-08-06T04:43:21;6.70;;;5.03;;
32094;SDS011;18608;53.688;10.748;2023-08-06T04:45:48;7.20;;;4.93;;
32094;SDS011;18608;53.688;10.748;2023-08-06T04:48:15;14.73;;;4.30;;
32094;SDS011;18608;53.688;10.748;2023-08-06T04:50:47;7.47;;;4.17;;
32094;SDS011;18608;53.688;10.748;2023-08-06T04:53:14;10.40;;;4.90;;
32094;SDS011;18608;53.688;10.748;2023-08-06T04:55:40;10.77;;;4.57;;
32094;SDS011;18608;53.688;10.748;2023-08-06T04:58:06;5.40;;;3.83;;
32094;SDS011;18608;53.688;10.748;2023-08-06T05:00:33;13.30;;;5.00;;
32094;SDS011;18608;53.688;10.748;2023-08-06T05:03:01;8.00;;;4.50;;
32094;SDS011;18608;53.688;10.748;2023-08-06T05:05:28;9.87;;;5.30;;
32094;SDS011;18608;53.688;10.748;2023-08-06T05:07:54;8.57;;;4.80;;
32094;SDS011;18608;53.688;10.748;2023-08-06T05:10:21;5.27;;;4.77;;
32094;SDS011;18608;53.688;10.748;2023-08-06T05:12:47;4.53;;;4.00;;
32094;SDS011;18608;53.688;10.748;2023-08-06T05:15:13;4.30;;;3.90;;
32094;SDS011;18608;53.688;10.748;2023-08-06T05:17:39;9.80;;;5.77;;
32094;SDS011;18608;53.688;10.748;2023-08-06T05:20:05;12.30;;;5.40;;
32094;SDS011;18608;53.688;10.748;2023-08-06T05:22:31;9.10;;;5.50;;
32094;SDS011;18608;53.688;10.748;2023-08-06T05:24:57;10.13;;;5.00;;
32094;SDS011;18608;53.688;10.748;2023-08-06T05:27:23;8.50;;;4.60;;
32094;SDS011;18608;53.688;10.748;2023-08-06T05:29:49;5.27;;;3.90;;
32094;SDS011;18608;53.688;10.748;2023-08-06T05:32:15;8.63;;;4.37;;
32094;SDS011;18608;53.688;10.748;2023-08-06T05:34:41;4.50;;;4.10;;
32094;SDS011;18608;53.688;10.748;2023-08-06T05:37:07;4.93;;;4.00;;
32094;SDS011;18608;53.688;10.748;2023-08-06T05:39:34;8.50;;;5.00;;
32094;SDS011;18608;53.688;10.748;2023-08-06T05:42:00;9.57;;;4.47;;
32094;SDS011;18608;53.688;10.748;2023-08-06T05:44:26;6.30;;;4.93;;
32094;SDS011;18608;53.688;10.748;2023-08-06T05:46:52;7.83;;;4.67;;
32094;SDS011;18608;53.688;10.748;2023-08-06T05:49:18;9.60;;;5.10;;
32094;SDS011;18608;53.688;10.748;2023-08-06T05:51:44;7.00;;;4.63;;
32094;SDS011;18608;53.688;10.748;2023-08-06T05:54:10;6.73;;;5.07;;
32094;SDS011;18608;53.688;10.748;2023-08-06T05:56:36;7.97;;;5.23;;
32094;SDS011;18608;53.688;10.748;2023-08-06T05:59:02;11.33;;;4.57;;
32094;SDS011;18608;53.688;10.748;2023-08-06T06:01:28;11.10;;;5.20;;
32094;SDS011;18608;53.688;10.748;2023-08-06T06:03:54;5.80;;;4.40;;
32094;SDS011;18608;53.688;10.748;2023-08-06T06:06:20;10.03;;;4.50;;
32094;SDS011;18608;53.688;10.748;2023-08-06T06:08:45;8.60;;;4.63;;
32094;SDS011;18608;53.688;10.748;2023-08-06T06:11:12;6.40;;;4.93;;
32094;SDS011;18608;53.688;10.748;2023-08-06T06:13:38;6.13;;;4.47;;
32094;SDS011;18608;53.688;10.748;2023-08-06T06:16:04;5.20;;;4.60;;
32094;SDS011;18608;53.688;10.748;2023-08-06T06:18:30;6.10;;;3.93;;
32094;SDS011;18608;53.688;10.748;2023-08-06T06:20:56;9.60;;;5.30;;
32094;SDS011;18608;53.688;10.748;2023-08-06T06:23:22;7.97;;;4.87;;
32094;SDS011;18608;53.688;10.748;2023-08-06T06:25:48;13.70;;;4.30;;
32094;SDS011;18608;53.688;10.748;2023-08-06T06:28:18;5.73;;;4.50;;
32094;SDS011;18608;53.688;10.748;2023-08-06T06:30:44;5.83;;;5.17;;
32094;SDS011;18608;53.688;10.748;2023-08-06T06:33:10;10.20;;;4.73;;
32094;SDS011;18608;53.688;10.748;2023-08-06T06:35:36;7.77;;;5.50;;
32094;SDS011;18608;53.688;10.748;2023-08-06T06:38:02;9.87;;;5.03;;
32094;SDS011;18608;53.688;10.748;2023-08-06T06:40:28;6.43;;;4.50;;
32094;SDS011;18608;53.688;10.748;2023-08-06T06:42:54;10.90;;;4.80;;
32094;SDS011;18608;53.688;10.748;2023-08-06T06:45:20;11.40;;;4.97;;
32094;SDS011;18608;53.688;10.748;2023-08-06T06:47:46;5.97;;;4.30;;
32094;SDS011;18608;53.688;10.748;2023-08-06T06:50:12;9.30;;;4.63;;
32094;SDS011;18608;53.688;10.748;2023-08-06T06:52:38;8.73;;;4.00;;
32094;SDS011;18608;53.688;10.748;2023-08-06T06:55:04;7.60;;;5.13;;
32094;SDS011;18608;53.688;10.748;2023-08-06T06:57:30;8.23;;;4.33;;
32094;SDS011;18608;53.688;10.748;2023-08-06T06:59:56;6.07;;;4.60;;
32094;SDS011;18608;53.688;10.748;2023-08-06T07:02:22;7.03;;;5.07;;
32094;SDS011;18608;53.688;10.748;2023-08-06T07:04:49;12.73;;;5.20;;
32094;SDS011;18608;53.688;10.748;2023-08-06T07:07:15;9.17;;;5.07;;
32094;SDS011;18608;53.688;10.748;2023-08-06T07:09:41;12.50;;;4.27;;
32094;SDS011;18608;53.688;10.748;2023-08-06T07:12:07;9.47;;;4.60;;
32094;SDS011;18608;53.688;10.748;2023-08-06T07:14:33;8.00;;;4.13;;
32094;SDS011;18608;53.688;10.748;2023-08-06T07:16:59;9.90;;;5.20;;
32094;SDS011;18608;53.688;10.748;2023-08-06T07:19:25;8.40;;;4.60;;
32094;SDS011;18608;53.688;10.748;2023-08-06T07:21:51;7.73;;;4.97;;
32094;SDS011;18608;53.688;10.748;2023-08-06T07:24:18;9.80;;;4.70;;
32094;SDS011;18608;53.688;10.748;2023-08-06T07:26:43;7.43;;;4.90;;
32094;SDS011;18608;53.688;10.748;2023-08-06T07:29:09;10.93;;;4.80;;
32094;SDS011;18608;53.688;10.748;2023-08-06T07:31:35;5.77;;;5.17;;
32094;SDS011;18608;53.688;10.748;2023-08-06T07:34:01;8.13;;;4.67;;
32094;SDS011;18608;53.688;10.748;2023-08-06T07:36:27;6.00;;;4.73;;
32094;SDS011;18608;53.688;10.748;2023-08-06T07:38:53;7.80;;;4.83;;
32094;SDS011;18608;53.688;10.748;2023-08-06T07:41:24;8.63;;;5.00;;
32094;SDS011;18608;53.688;10.748;2023-08-06T07:43:50;12.40;;;4.97;;
32094;SDS011;18608;53.688;10.748;2023-08-06T07:46:16;8.90;;;5.03;;
32094;SDS011;18608;53.688;10.748;2023-08-06T07:48:42;5.60;;;4.37;;
32094;SDS011;18608;53.688;10.748;2023-08-06T07:51:08;9.30;;;5.37;;
32094;SDS011;18608;53.688;10.748;2023-08-06T07:53:34;5.80;;;4.13;;
32094;SDS011;18608;53.688;10.748;2023-08-06T07:55:59;12.83;;;5.73;;
32094;SDS011;18608;53.688;10.748;2023-08-06T07:58:27;13.00;;;4.70;;
32094;SDS011;18608;53.688;10.748;2023-08-06T08:00:54;5.83;;;4.03;;
32094;SDS011;18608;53.688;10.748;2023-08-06T08:03:20;9.37;;;5.10;;
32094;SDS011;18608;53.688;10.748;2023-08-06T08:05:46;7.50;;;4.63;;
32094;SDS011;18608;53.688;10.748;2023-08-06T08:08:12;9.93;;;4.13;;
32094;SDS011;18608;53.688;10.748;2023-08-06T08:10:39;9.60;;;4.50;;
32094;SDS011;18608;53.688;10.748;2023-08-06T08:13:05;9.00;;;4.10;;
32094;SDS011;18608;53.688;10.748;2023-08-06T08:15:31;9.80;;;4.33;;
32094;SDS011;18608;53.688;10.748;2023-08-06T08:17:57;9.33;;;4.87;;
32094;SDS011;18608;53.688;10.748;2023-08-06T08:20:23;13.13;;;5.10;;
32094;SDS011;18608;53.688;10.748;2023-08-06T08:22:49;7.77;;;4.97;;
32094;SDS011;18608;53.688;10.748;2023-08-06T08:25:15;8.40;;;4.60;;
32094;SDS011;18608;53.688;10.748;2023-08-06T08:27:41;6.43;;;5.43;;
32094;SDS011;18608;53.688;10.748;2023-08-06T08:30:07;5.13;;;4.50;;
32094;SDS011;18608;53.688;10.748;2023-08-06T08:32:33;7.73;;;4.90;;
32094;SDS011;18608;53.688;10.748;2023-08-06T08:34:59;7.10;;;5.10;;
32094;SDS011;18608;53.688;10.748;2023-08-06T08:37:25;6.87;;;4.77;;
32094;SDS011;18608;53.688;10.748;2023-08-06T08:39:51;11.00;;;5.20;;
32094;SDS011;18608;53.688;10.748;2023-08-06T08:42:17;11.17;;;4.90;;
32094;SDS011;18608;53.688;10.748;2023-08-06T08:44:43;5.47;;;4.33;;
32094;SDS011;18608;53.688;10.748;2023-08-06T08:47:10;7.67;;;4.50;;
32094;SDS011;18608;53.688;10.748;2023-08-06T08:49:36;6.30;;;4.40;;
32094;SDS011;18608;53.688;10.748;2023-08-06T08:52:03;8.90;;;4.87;;
32094;SDS011;18608;53.688;10.748;2023-08-06T08:54:34;6.20;;;5.17;;
32094;SDS011;18608;53.688;10.748;2023-08-06T08:57:02;7.20;;;5.00;;
32094;SDS011;18608;53.688;10.748;2023-08-06T08:59:28;10.70;;;4.57;;
32094;SDS011;18608;53.688;10.748;2023-08-06T09:01:54;7.80;;;4.97;;
32094;SDS011;18608;53.688;10.748;2023-08-06T09:04:21;4.80;;;4.27;;
32094;SDS011;18608;53.688;10.748;2023-08-06T09:06:49;9.30;;;5.40;;
32094;SDS011;18608;53.688;10.748;2023-08-06T09:09:17;9.20;;;4.30;;
32094;SDS011;18608;53.688;10.748;2023-08-06T09:12:05;8.33;;;4.90;;
32094;SDS011;18608;53.688;10.748;2023-08-06T09:14:36;12.03;;;4.97;;
32094;SDS011;18608;53.688;10.748;2023-08-06T09:17:03;4.70;;;4.30;;
32094;SDS011;18608;53.688;10.748;2023-08-06T09:19:30;9.57;;;4.90;;
32094;SDS011;18608;53.688;10.748;2023-08-06T09:21:56;10.13;;;4.73;;
32094;SDS011;18608;53.688;10.748;2023-08-06T09:24:22;6.40;;;4.60;;
32094;SDS011;18608;53.688;10.748;2023-08-06T09:26:49;7.33;;;4.17;;
32094;SDS011;18608;53.688;10.748;2023-08-06T09:29:15;6.10;;;4.73;;
32094;SDS011;18608;53.688;10.748;2023-08-06T09:31:42;5.80;;;4.80;;
32094;SDS011;18608;53.688;10.748;2023-08-06T09:34:12;5.80;;;5.10;;
32094;SDS011;18608;53.688;10.748;2023-08-06T09:36:46;8.17;;;4.20;;
32094;SDS011;18608;53.688;10.748;2023-08-06T09:39:14;9.33;;;5.67;;
32094;SDS011;18608;53.688;10.748;2023-08-06T09:41:41;6.07;;;4.57;;
32094;SDS011;18608;53.688;10.748;2023-08-06T09:44:16;8.70;;;5.13;;
32094;SDS011;18608;53.688;10.748;2023-08-06T09:46:47;7.00;;;4.57;;
32094;SDS011;18608;53.688;10.748;2023-08-06T09:49:27;5.83;;;5.17;;
32094;SDS011;18608;53.688;10.748;2023-08-06T09:51:54;6.60;;;4.83;;
32094;SDS011;18608;53.688;10.748;2023-08-06T09:54:23;7.63;;;5.03;;
32094;SDS011;18608;53.688;10.748;2023-08-06T09:56:51;6.27;;;4.50;;
32094;SDS011;18608;53.688;10.748;2023-08-06T09:59:17;9.13;;;5.00;;
32094;SDS011;18608;53.688;10.748;2023-08-06T10:01:44;14.57;;;5.13;;
32094;SDS011;18608;53.688;10.748;2023-08-06T10:04:11;8.93;;;5.40;;
32094;SDS011;18608;53.688;10.748;2023-08-06T10:06:41;7.33;;;5.00;;
32094;SDS011;18608;53.688;10.748;2023-08-06T10:09:07;6.57;;;5.17;;
32094;SDS011;18608;53.688;10.748;2023-08-06T10:11:34;8.23;;;4.90;;
32094;SDS011;18608;53.688;10.748;2023-08-06T10:14:11;5.80;;;4.97;;
32094;SDS011;18608;53.688;10.748;2023-08-06T10:16:41;9.57;;;6.10;;
32094;SDS011;18608;53.688;10.748;2023-08-06T10:19:09;6.20;;;4.17;;
32094;SDS011;18608;53.688;10.748;2023-08-06T10:21:38;9.30;;;5.47;;
32094;SDS011;18608;53.688;10.748;2023-08-06T10:24:04;6.83;;;4.90;;
32094;SDS011;18608;53.688;10.748;2023-08-06T10:26:35;4.70;;;4.27;;
32094;SDS011;18608;53.688;10.748;2023-08-06T10:29:01;8.23;;;4.80;;
32094;SDS011;18608;53.688;10.748;2023-08-06T10:32:11;14.67;;;5.23;;
32094;SDS011;18608;53.688;10.748;2023-08-06T10:34:53;6.93;;;4.50;;
32094;SDS011;18608;53.688;10.748;2023-08-06T10:37:22;6.87;;;4.60;;
32094;SDS011;18608;53.688;10.748;2023-08-06T10:39:49;9.17;;;5.07;;
32094;SDS011;18608;53.688;10.748;2023-08-06T10:42:22;7.50;;;4.87;;
32094;SDS011;18608;53.688;10.748;2023-08-06T10:47:41;5.60;;;4.50;;
32094;SDS011;18608;53.688;10.748;2023-08-06T10:50:07;6.77;;;4.13;;
32094;SDS011;18608;53.688;10.748;2023-08-06T10:52:41;7.53;;;4.70;;
32094;SDS011;18608;53.688;10.748;2023-08-06T10:55:07;7.73;;;4.20;;
32094;SDS011;18608;53.688;10.748;2023-08-06T10:57:34;6.40;;;4.57;;
32094;SDS011;18608;53.688;10.748;2023-08-06T11:00:00;7.07;;;4.87;;
32094;SDS011;18608;53.688;10.748;2023-08-06T11:02:26;7.83;;;4.23;;
32094;SDS011;18608;53.688;10.748;2023-08-06T11:04:52;6.43;;;3.93;;
32094;SDS011;18608;53.688;10.748;2023-08-06T11:07:18;8.90;;;4.27;;
32094;SDS011;18608;53.688;10.748;2023-08-06T11:09:49;7.90;;;4.20;;
32094;SDS011;18608;53.688;10.748;2023-08-06T11:12:18;7.60;;;4.43;;
32094;SDS011;18608;53.688;10.748;2023-08-06T11:14:49;5.73;;;4.70;;
32094;SDS011;18608;53.688;10.748;2023-08-06T11:17:15;5.00;;;4.10;;
32094;SDS011;18608;53.688;10.748;2023-08-06T11:19:41;8.87;;;5.60;;
32094;SDS011;18608;53.688;10.748;2023-08-06T11:22:07;8.33;;;5.40;;
32094;SDS011;18608;53.688;10.748;2023-08-06T11:24:33;11.60;;;5.47;;
32094;SDS011;18608;53.688;10.748;2023-08-06T11:26:59;13.07;;;6.20;;
32094;SDS011;18608;53.688;10.748;2023-08-06T11:29:26;8.53;;;6.23;;
32094;SDS011;18608;53.688;10.748;2023-08-06T11:31:52;12.63;;;5.53;;
32094;SDS011;18608;53.688;10.748;2023-08-06T11:34:18;11.23;;;5.83;;
32094;SDS011;18608;53.688;10.748;2023-08-06T11:36:44;7.43;;;6.23;;
32094;SDS011;18608;53.688;10.748;2023-08-06T11:39:10;10.67;;;6.07;;
32094;SDS011;18608;53.688;10.748;2023-08-06T11:41:36;11.67;;;6.00;;
32094;SDS011;18608;53.688;10.748;2023-08-06T11:44:06;9.60;;;6.00;;
32094;SDS011;18608;53.688;10.748;2023-08-06T11:46:51;7.37;;;5.97;;
32094;SDS011;18608;53.688;10.748;2023-08-06T11:49:17;10.70;;;5.53;;
32094;SDS011;18608;53.688;10.748;2023-08-06T11:51:47;5.03;;;4.20;;
32094;SDS011;18608;53.688;10.748;2023-08-06T11:54:13;9.37;;;6.47;;
32094;SDS011;18608;53.688;10.748;2023-08-06T11:56:39;9.20;;;5.20;;
32094;SDS011;18608;53.688;10.748;2023-08-06T11:59:05;15.93;;;5.17;;
32094;SDS011;18608;53.688;10.748;2023-08-06T12:01:31;5.57;;;4.97;;
32094;SDS011;18608;53.688;10.748;2023-08-06T12:04:00;8.10;;;5.17;;
32094;SDS011;18608;53.688;10.748;2023-08-06T12:06:29;7.37;;;3.93;;
32094;SDS011;18608;53.688;10.748;2023-08-06T12:08:54;11.37;;;4.33;;
32094;SDS011;18608;53.688;10.748;2023-08-06T12:11:21;5.47;;;3.53;;
32094;SDS011;18608;53.688;10.748;2023-08-06T12:13:50;6.40;;;3.70;;
32094;SDS011;18608;53.688;10.748;2023-08-06T12:16:16;11.30;;;3.17;;
32094;SDS011;18608;53.688;10.748;2023-08-06T12:18:44;5.37;;;3.33;;
32094;SDS011;18608;53.688;10.748;2023-08-06T12:21:10;3.67;;;3.07;;
32094;SDS011;18608;53.688;10.748;2023-08-06T12:23:35;4.90;;;3.53;;
32094;SDS011;18608;53.688;10.748;2023-08-06T12:26:01;3.10;;;2.53;;
32094;SDS011;18608;53.688;10.748;2023-08-06T12:28:27;4.97;;;2.40;;
32094;SDS011;18608;53.688;10.748;2023-08-06T12:30:53;4.87;;;2.60;;
32094;SDS011;18608;53.688;10.748;2023-08-06T12:33:20;2.50;;;2.30;;
32094;SDS011;18608;53.688;10.748;2023-08-06T12:35:46;3.27;;;2.70;;
32094;SDS011;18608;53.688;10.748;2023-08-06T12:38:12;3.37;;;2.40;;
32094;SDS011;18608;53.688;10.748;2023-08-06T12:40:38;2.87;;;2.67;;
32094;SDS011;18608;53.688;10.748;2023-08-06T12:43:04;4.03;;;2.37;;
32094;SDS011;18608;53.688;10.748;2023-08-06T12:45:30;3.60;;;2.60;;
32094;SDS011;18608;53.688;10.748;2023-08-06T12:47:56;2.33;;;1.90;;
32094;SDS011;18608;53.688;10.748;2023-08-06T12:50:23;3.23;;;2.33;;
32094;SDS011;18608;53.688;10.748;2023-08-06T12:52:48;2.80;;;1.83;;
32094;SDS011;18608;53.688;10.748;2023-08-06T12:55:14;5.53;;;2.53;;
32094;SDS011;18608;53.688;10.748;2023-08-06T12:57:40;3.10;;;2.27;;
32094;SDS011;18608;53.688;10.748;2023-08-06T13:00:06;2.23;;;2.03;;
32094;SDS011;18608;53.688;10.748;2023-08-06T13:02:32;7.30;;;2.80;;
32094;SDS011;18608;53.688;10.748;2023-08-06T13:04:58;6.37;;;3.13;;
32094;SDS011;18608;53.688;10.748;2023-08-06T13:07:24;3.37;;;2.83;;
32094;SDS011;18608;53.688;10.748;2023-08-06T13:09:50;10.50;;;1.93;;
32094;SDS011;18608;53.688;10.748;2023-08-06T13:12:16;2.23;;;2.03;;
32094;SDS011;18608;53.688;10.748;2023-08-06T13:14:45;2.93;;;1.80;;
32094;SDS011;18608;53.688;10.748;2023-08-06T13:17:11;1.83;;;1.73;;
32094;SDS011;18608;53.688;10.748;2023-08-06T13:19:37;3.00;;;1.47;;
32094;SDS011;18608;53.688;10.748;2023-08-06T13:22:03;2.40;;;1.53;;
32094;SDS011;18608;53.688;10.748;2023-08-06T13:24:31;10.20;;;1.67;;
32094;SDS011;18608;53.688;10.748;2023-08-06T13:26:57;1.70;;;1.60;;
32094;SDS011;18608;53.688;10.748;2023-08-06T13:29:24;3.97;;;1.70;;
32094;SDS011;18608;53.688;10.748;2023-08-06T13:31:50;4.93;;;1.67;;
32094;SDS011;18608;53.688;10.748;2023-08-06T13:34:16;3.43;;;1.37;;
32094;SDS011;18608;53.688;10.748;2023-08-06T13:36:42;2.33;;;1.40;;
32094;SDS011;18608;53.688;10.748;2023-08-06T13:39:08;11.20;;;1.83;;
32094;SDS011;18608;53.688;10.748;2023-08-06T13:41:34;2.87;;;2.27;;
32094;SDS011;18608;53.688;10.748;2023-08-06T13:44:00;3.63;;;1.80;;
32094;SDS011;18608;53.688;10.748;2023-08-06T13:46:26;2.03;;;1.40;;
32094;SDS011;18608;53.688;10.748;2023-08-06T13:48:52;4.00;;;1.50;;
32094;SDS011;18608;53.688;10.748;2023-08-06T13:51:18;3.73;;;1.60;;
32094;SDS011;18608;53.688;10.748;2023-08-06T13:53:44;2.63;;;1.57;;
32094;SDS011;18608;53.688;10.748;2023-08-06T13:56:10;2.30;;;1.63;;
32094;SDS011;18608;53.688;10.748;2023-08-06T13:58:37;5.63;;;2.37;;
32094;SDS011;18608;53.688;10.748;2023-08-06T14:01:03;3.60;;;1.80;;
32094;SDS011;18608;53.688;10.748;2023-08-06T14:03:29;2.10;;;1.47;;
32094;SDS011;18608;53.688;10.748;2023-08-06T14:05:55;1.67;;;1.57;;
32094;SDS011;18608;53.688;10.748;2023-08-06T14:08:21;2.00;;;1.73;;
32094;SDS011;18608;53.688;10.748;2023-08-06T14:10:48;2.50;;;1.87;;
32094;SDS011;18608;53.688;10.748;2023-08-06T14:13:14;5.40;;;2.70;;
32094;SDS011;18608;53.688;10.748;2023-08-06T14:15:40;7.50;;;3.87;;
32094;SDS011;18608;53.688;10.748;2023-08-06T14:18:06;2.80;;;1.70;;
32094;SDS011;18608;53.688;10.748;2023-08-06T14:20:35;12.23;;;2.20;;
32094;SDS011;18608;53.688;10.748;2023-08-06T14:23:01;3.03;;;1.73;;
32094;SDS011;18608;53.688;10.748;2023-08-06T14:25:28;1.60;;;1.47;;
32094;SDS011;18608;53.688;10.748;2023-08-06T14:27:54;2.63;;;1.83;;
32094;SDS011;18608;53.688;10.748;2023-08-06T14:30:20;3.03;;;2.83;;
32094;SDS011;18608;53.688;10.748;2023-08-06T14:32:46;4.73;;;2.53;;
32094;SDS011;18608;53.688;10.748;2023-08-06T14:35:12;10.23;;;2.03;;
32094;SDS011;18608;53.688;10.748;2023-08-06T14:37:39;2.13;;;1.63;;
32094;SDS011;18608;53.688;10.748;2023-08-06T14:40:06;2.43;;;2.20;;